createdAt,value
2016-11-25T12:22:18.667Z,24.69
2016-11-25T12:23:18.173Z,24.63
2016-11-25T12:24:18.403Z,24.78
2016-11-25T12:25:17.875Z,24.73
2016-11-25T12:26:17.948Z,24.84
2016-11-25T12:27:18.078Z,24.84
2016-11-25T12:28:18.611Z,24.8
2016-11-25T12:29:18.100Z,24.74
2016-11-25T12:30:18.122Z,24.84
2016-11-25T12:31:18.201Z,24.76
2016-11-25T12:32:18.483Z,24.84
2016-11-25T12:33:18.293Z,24.85
2016-11-25T12:34:18.336Z,24.88
2016-11-25T12:35:18.416Z,24.89
2016-11-25T12:36:18.971Z,24.93
2016-11-25T12:37:18.623Z,24.86
2016-11-25T12:38:18.796Z,24.89
2016-11-25T12:39:18.630Z,24.98
2016-11-25T12:40:18.641Z,25.06
2016-11-25T12:41:18.719Z,24.99
2016-11-25T12:42:19.572Z,25.07
2016-11-25T12:43:19.324Z,25.13
2016-11-25T12:44:18.905Z,25.17
2016-11-25T12:45:18.976Z,25.01
2016-11-25T12:46:19.021Z,25.07
2016-11-25T12:47:19.011Z,25.01
2016-11-25T12:48:19.653Z,25.14
2016-11-25T12:49:19.170Z,25.11
2016-11-25T12:50:19.199Z,25.18
2016-11-25T12:51:19.261Z,25.25
2016-11-25T12:52:19.831Z,25.33
2016-11-25T12:53:19.366Z,25.4
2016-11-25T12:54:19.436Z,25.47
2016-11-25T12:55:19.482Z,25.5
2016-11-25T12:56:20.058Z,25.47
2016-11-25T12:57:19.553Z,25.53
2016-11-25T12:58:19.657Z,25.54
2016-11-25T12:59:20.189Z,25.63
2016-11-25T13:00:19.739Z,25.62
2016-11-25T13:01:19.773Z,25.55
2016-11-25T13:02:19.843Z,25.55
2016-11-25T13:03:20.754Z,25.54
2016-11-25T13:04:19.940Z,25.6
2016-11-25T13:05:19.998Z,25.77
2016-11-25T13:06:20.061Z,25.72
2016-11-25T13:07:20.148Z,25.77
2016-11-25T13:08:20.234Z,25.8
2016-11-25T13:09:20.248Z,25.75
2016-11-25T13:10:20.265Z,25.91
2016-11-25T13:11:20.293Z,25.93
2016-11-25T13:12:20.381Z,25.87
2016-11-25T13:13:20.516Z,25.95
2016-11-25T13:14:20.487Z,26.05
2016-11-25T13:15:20.514Z,26.07
2016-11-25T13:16:20.579Z,26.05
2016-11-25T13:17:21.190Z,26.07
2016-11-25T13:18:20.972Z,26.06
2016-11-25T13:19:20.775Z,26.06
2016-11-25T13:20:21.379Z,26.1
2016-11-25T13:21:20.868Z,26.05
2016-11-25T13:22:20.931Z,26.06
2016-11-25T13:23:21.292Z,26.07
2016-11-25T13:24:21.043Z,26.02
2016-11-25T13:25:21.065Z,26.07
2016-11-25T13:26:21.143Z,26.06
2016-11-25T13:27:21.144Z,26.03
2016-11-25T13:28:21.211Z,26.06
2016-11-25T13:29:21.314Z,26.13
2016-11-25T13:30:21.346Z,26.21
2016-11-25T13:31:21.416Z,26.28
2016-11-25T13:32:21.466Z,26.16
2016-11-25T13:33:21.501Z,26.28
2016-11-25T13:34:21.516Z,26.28
2016-11-25T13:35:21.598Z,26.31
2016-11-25T13:36:21.676Z,26.26
2016-11-25T13:37:22.281Z,26.31
2016-11-25T13:38:21.772Z,26.41
2016-11-25T13:39:22.314Z,26.33
2016-11-25T13:40:21.845Z,26.23
2016-11-25T13:41:21.907Z,26.26
2016-11-25T13:42:22.529Z,26.37
2016-11-25T13:43:22.047Z,26.38
2016-11-25T13:44:22.199Z,26.52
2016-11-25T13:45:22.672Z,26.45
2016-11-25T13:46:22.208Z,26.55
2016-11-25T13:47:22.231Z,26.52
2016-11-25T13:48:22.302Z,26.51
2016-11-25T13:49:22.616Z,26.58
2016-11-25T13:50:22.405Z,26.55
2016-11-25T13:51:22.469Z,26.68
2016-11-25T13:52:22.526Z,26.62
2016-11-25T13:53:23.075Z,26.8
2016-11-25T13:54:22.703Z,26.85
2016-11-25T13:55:23.234Z,26.77
2016-11-25T13:56:22.741Z,26.84
2016-11-25T13:57:23.279Z,26.8
2016-11-25T13:58:22.832Z,26.73
2016-11-25T13:59:23.041Z,26.8
2016-11-25T14:00:22.915Z,26.8
2016-11-25T14:01:23.036Z,26.85
2016-11-25T14:02:23.053Z,26.81
2016-11-25T14:03:23.164Z,26.8
2016-11-25T14:04:23.146Z,26.83
2016-11-25T14:05:23.242Z,26.8
2016-11-25T14:06:23.268Z,26.81
2016-11-25T14:07:23.341Z,26.77
2016-11-25T14:08:23.360Z,26.84
2016-11-25T14:09:23.435Z,26.89
2016-11-25T14:10:23.478Z,27
2016-11-25T14:11:23.510Z,27.02
2016-11-25T14:12:23.563Z,26.93
2016-11-25T14:13:23.638Z,27.05
2016-11-25T14:14:24.241Z,27.1
2016-11-25T14:15:23.788Z,27.07
2016-11-25T14:16:24.033Z,27.1
2016-11-25T14:17:23.909Z,27.22
2016-11-25T14:18:23.912Z,27.18
2016-11-25T14:19:24.012Z,27.21
2016-11-25T14:20:24.141Z,27.29
2016-11-25T14:21:24.129Z,27.21
2016-11-25T14:22:24.129Z,27.36
2016-11-25T14:23:24.699Z,27.22
2016-11-25T14:24:24.791Z,27.1
2016-11-25T14:25:24.416Z,27.1
2016-11-25T14:26:24.387Z,27.15
2016-11-25T14:27:24.441Z,27.15
2016-11-25T14:28:24.502Z,27.25
2016-11-25T14:29:24.562Z,27.33
2016-11-25T14:30:24.793Z,27.32
2016-11-25T14:31:25.196Z,27.26
2016-11-25T14:32:24.677Z,27.17
2016-11-25T14:33:25.307Z,27.2
2016-11-25T14:34:24.755Z,27.29
2016-11-25T14:35:25.042Z,27.29
2016-11-25T14:36:24.898Z,27.35
2016-11-25T14:37:24.977Z,27.37
2016-11-25T14:38:25.777Z,27.42
2016-11-25T14:39:26.322Z,27.54
2016-11-25T14:40:25.250Z,27.63
2016-11-25T14:41:25.185Z,27.54
2016-11-25T14:42:25.234Z,27.65
2016-11-25T14:43:25.296Z,27.67
2016-11-25T14:44:25.323Z,27.55
2016-11-25T14:45:25.405Z,27.6
2016-11-25T14:46:25.511Z,27.67
2016-11-25T14:47:25.521Z,27.6
2016-11-25T14:48:25.646Z,27.51
2016-11-25T14:49:25.661Z,27.47
2016-11-25T14:50:25.656Z,27.44
2016-11-25T14:51:26.259Z,27.52
2016-11-25T14:52:26.262Z,27.52
2016-11-25T14:53:25.904Z,27.47
2016-11-25T14:54:25.906Z,27.42
2016-11-25T14:55:25.903Z,27.54
2016-11-25T14:56:26.040Z,27.45
2016-11-25T14:57:26.055Z,27.6
2016-11-25T14:58:26.175Z,27.83
2016-11-25T14:59:26.216Z,27.8
2016-11-25T15:00:26.745Z,27.78
2016-11-25T15:01:26.801Z,27.89
2016-11-25T15:02:26.819Z,27.85
2016-11-25T15:03:26.381Z,27.86
2016-11-25T15:04:26.495Z,27.86
2016-11-25T15:05:26.991Z,27.86
2016-11-25T15:06:26.634Z,27.96
2016-11-25T15:07:26.580Z,27.96
2016-11-25T15:08:26.697Z,28.01
2016-11-25T15:09:26.843Z,28.1
2016-11-25T15:10:26.744Z,28.07
2016-11-25T15:11:27.534Z,28.07
2016-11-25T15:12:27.381Z,28.14
2016-11-25T15:13:28.002Z,28.23
2016-11-25T15:14:27.528Z,28.22
2016-11-25T15:15:27.573Z,28.17
2016-11-25T15:16:27.301Z,28.17
2016-11-25T15:17:28.184Z,28.1
2016-11-25T15:18:27.713Z,28.15
2016-11-25T15:19:27.765Z,28.14
2016-11-25T15:20:27.992Z,28.22
2016-11-25T15:21:27.463Z,28.17
2016-11-25T15:22:28.538Z,28.14
2016-11-25T15:23:28.106Z,28.19
2016-11-25T15:24:27.537Z,28.17
2016-11-25T15:25:27.637Z,28.27
2016-11-25T15:26:28.366Z,28.3
2016-11-25T15:27:27.779Z,28.32
2016-11-25T15:28:27.719Z,28.25
2016-11-25T15:29:27.831Z,28.22
2016-11-25T15:30:27.855Z,28.19
2016-11-25T15:31:27.924Z,28.1
2016-11-25T15:32:28.502Z,27.98
2016-11-25T15:33:28.036Z,27.92
2016-11-25T15:34:28.071Z,27.78
2016-11-25T15:35:28.142Z,27.74
2016-11-25T15:36:28.203Z,27.63
2016-11-25T15:37:28.227Z,27.55
2016-11-25T15:38:28.833Z,27.52
2016-11-25T15:39:28.386Z,27.42
2016-11-25T15:40:28.443Z,27.35
2016-11-25T15:41:28.461Z,27.27
2016-11-25T15:42:28.721Z,27.3
2016-11-25T15:43:28.565Z,27.26
2016-11-25T15:44:28.623Z,27.26
2016-11-25T15:45:28.793Z,27.21
2016-11-25T15:47:36.232Z,27.25
2016-11-25T15:48:04.142Z,27.25
2016-11-25T15:48:32.076Z,27.36
2016-11-25T15:48:59.901Z,27.27
2016-11-25T15:49:27.739Z,27.36
2016-11-25T15:49:55.572Z,27.45
2016-11-25T15:50:23.412Z,27.47
2016-11-25T15:50:51.411Z,27.58
2016-11-25T15:51:19.201Z,27.75
2016-11-25T15:51:46.979Z,27.74
2016-11-25T15:52:14.978Z,27.87
2016-11-25T15:52:43.120Z,28
2016-11-25T15:53:10.915Z,27.98
2016-11-25T15:53:38.679Z,28.07
2016-11-25T15:54:06.520Z,28.05
2016-11-25T15:54:34.297Z,28.08
2016-11-25T15:55:02.115Z,28.14
2016-11-25T15:55:29.864Z,28.2
2016-11-25T15:55:57.689Z,28.11
2016-11-25T15:56:25.700Z,28.26
2016-11-25T15:56:53.583Z,28.27
2016-11-25T15:57:21.349Z,28.33
2016-11-25T15:57:49.236Z,28.33
2016-11-25T15:58:17.159Z,28.41
2016-11-25T15:58:45.036Z,28.45
2016-11-25T15:59:12.865Z,28.42
2016-11-25T15:59:40.708Z,28.37
2016-11-25T16:00:08.502Z,28.44
2016-11-25T16:00:36.506Z,28.48
2016-11-25T16:01:04.562Z,28.48
2016-11-25T16:01:32.624Z,28.49
2016-11-25T16:02:00.574Z,28.63
2016-11-25T16:02:28.402Z,28.57
2016-11-25T16:02:56.393Z,28.56
2016-11-25T16:03:24.566Z,28.56
2016-11-25T16:03:52.760Z,28.59
2016-11-25T16:04:20.665Z,28.54
2016-11-25T16:04:48.588Z,28.67
2016-11-25T16:05:16.481Z,28.69
2016-11-25T16:05:44.321Z,28.69
2016-11-25T16:06:12.160Z,28.78
2016-11-25T16:06:40.070Z,28.62
2016-11-25T16:07:07.853Z,28.7
2016-11-25T16:07:35.624Z,28.75
2016-11-25T16:08:03.621Z,28.76
2016-11-25T16:08:31.536Z,28.7
2016-11-25T16:08:59.456Z,28.69
2016-11-25T16:09:27.354Z,28.7
2016-11-25T16:09:55.332Z,28.72
2016-11-25T16:10:23.231Z,28.75
2016-11-25T16:10:51.060Z,28.67
2016-11-25T16:11:18.939Z,28.72
2016-11-25T16:11:46.802Z,28.66
2016-11-25T16:12:14.686Z,28.69
2016-11-25T16:12:42.607Z,28.76
2016-11-25T16:13:10.648Z,28.79
2016-11-25T16:13:38.531Z,28.72
2016-11-25T16:14:06.407Z,28.75
2016-11-25T16:14:34.839Z,28.75
2016-11-25T16:15:02.615Z,28.81
2016-11-25T16:15:30.388Z,28.86
2016-11-25T16:15:58.258Z,28.96
2016-11-25T16:16:26.026Z,28.81
2016-11-25T16:16:53.842Z,28.89
2016-11-25T16:17:21.771Z,28.96
2016-11-25T16:17:49.663Z,28.89
2016-11-25T16:18:17.512Z,28.89
2016-11-25T16:18:45.441Z,28.94
2016-11-25T16:19:13.330Z,28.89
2016-11-25T16:19:41.721Z,29.01
2016-11-25T16:20:09.621Z,28.97
2016-11-25T16:20:37.477Z,28.96
2016-11-25T16:21:05.398Z,28.96
2016-11-25T16:21:33.378Z,29.05
2016-11-25T16:22:01.159Z,29.04
2016-11-25T16:22:29.060Z,29.1
2016-11-25T16:22:57.133Z,29.13
2016-11-25T16:23:25.093Z,29.08
2016-11-25T16:23:53.040Z,29.08
2016-11-25T16:24:21.123Z,29.05
2016-11-25T16:24:49.122Z,29.02
2016-11-25T16:25:16.945Z,29.07
2016-11-25T16:25:44.761Z,29.01
2016-11-25T16:26:12.586Z,29.02
2016-11-25T16:26:40.401Z,29.05
2016-11-25T16:27:08.189Z,29.12
2016-11-25T16:27:36.512Z,29.1
2016-11-25T16:28:04.503Z,29.08
2016-11-25T16:28:32.387Z,29.05
2016-11-25T16:29:00.242Z,28.96
2016-11-25T16:29:28.132Z,28.89
2016-11-25T16:29:56.011Z,28.89
2016-11-25T16:30:23.866Z,28.96
2016-11-25T16:30:51.726Z,28.93
2016-11-25T16:31:19.538Z,28.97
2016-11-25T16:31:47.284Z,29.02
2016-11-25T16:32:15.182Z,28.97
2016-11-25T16:32:43.059Z,28.97
2016-11-25T16:33:10.981Z,28.96
2016-11-25T16:33:38.798Z,28.94
2016-11-25T16:34:06.670Z,28.91
2016-11-25T16:34:34.528Z,28.91
2016-11-25T16:35:02.324Z,28.85
2016-11-25T16:35:30.133Z,28.86
2016-11-25T16:35:58.126Z,28.79
2016-11-25T16:36:25.994Z,28.81
2016-11-25T16:36:53.797Z,28.72
2016-11-25T16:37:21.684Z,28.76
2016-11-25T16:37:49.773Z,28.85
2016-11-25T16:38:17.749Z,28.94
2016-11-25T16:38:45.765Z,28.91
2016-11-25T16:39:13.583Z,28.91
2016-11-25T16:39:41.394Z,28.88
2016-11-25T16:40:09.390Z,28.89
2016-11-25T16:40:37.282Z,28.93
2016-11-25T16:41:05.125Z,28.94
2016-11-25T16:41:33.018Z,28.93
2016-11-25T16:42:01.033Z,28.89
2016-11-25T16:42:28.769Z,28.94
2016-11-25T16:42:56.918Z,28.89
2016-11-25T16:43:24.751Z,28.88
2016-11-25T16:43:52.560Z,28.91
2016-11-25T16:44:20.456Z,28.79
2016-11-25T16:44:48.363Z,28.78
2016-11-25T16:45:16.191Z,28.75
2016-11-25T16:45:43.974Z,28.72
2016-11-25T16:46:11.921Z,28.67
2016-11-25T16:46:39.840Z,28.66
2016-11-25T16:47:07.606Z,28.69
2016-11-25T16:47:35.401Z,28.64
2016-11-25T16:48:03.509Z,28.7
2016-11-25T16:48:31.430Z,28.67
2016-11-25T16:48:59.219Z,28.66
2016-11-25T16:49:27.004Z,28.63
2016-11-25T16:49:55.800Z,28.72
2016-11-25T16:50:23.674Z,28.67
2016-11-25T16:50:51.578Z,28.72
2016-11-25T16:51:19.397Z,28.7
2016-11-25T16:51:47.241Z,28.72
2016-11-25T16:52:15.190Z,28.63
2016-11-25T16:52:43.151Z,28.67
2016-11-25T16:53:11.007Z,28.63
2016-11-25T16:53:38.827Z,28.72
2016-11-25T16:54:06.642Z,28.7
2016-11-25T16:54:34.655Z,28.69
2016-11-25T16:55:02.604Z,28.74
2016-11-25T16:55:30.557Z,28.7
2016-11-25T16:55:58.412Z,28.66
2016-11-25T16:56:26.408Z,28.66
2016-11-25T16:56:54.270Z,28.67
2016-11-25T16:57:22.115Z,28.81
2016-11-25T16:57:50.100Z,28.69
2016-11-25T16:58:18.079Z,28.74
2016-11-25T16:58:45.931Z,28.63
2016-11-25T16:59:13.960Z,28.7
2016-11-25T16:59:41.948Z,28.69
2016-11-25T17:00:09.962Z,28.72
2016-11-25T17:00:37.854Z,28.72
2016-11-25T17:01:05.766Z,28.78
2016-11-25T17:01:33.678Z,28.81
2016-11-25T17:02:01.493Z,28.79
2016-11-25T17:02:29.436Z,28.84
2016-11-25T17:02:57.222Z,28.82
2016-11-25T17:03:25.081Z,28.69
2016-11-25T17:03:52.968Z,28.67
2016-11-25T17:04:20.921Z,28.67
2016-11-25T17:04:48.700Z,28.78
2016-11-25T17:05:16.496Z,28.7
2016-11-25T17:05:44.295Z,28.67
2016-11-25T17:06:12.279Z,28.67
2016-11-25T17:06:40.181Z,28.69
2016-11-25T17:07:08.147Z,28.72
2016-11-25T17:07:35.946Z,28.67
2016-11-25T17:08:04.432Z,28.69
2016-11-25T17:08:32.303Z,28.6
2016-11-25T17:09:00.103Z,28.62
2016-11-25T17:09:27.994Z,28.59
2016-11-25T17:09:55.848Z,28.52
2016-11-25T17:10:23.849Z,28.52
2016-11-25T17:10:51.634Z,28.44
2016-11-25T17:11:19.426Z,28.45
2016-11-25T17:11:47.191Z,28.48
2016-11-25T17:12:15.173Z,28.51
2016-11-25T17:12:43.036Z,28.54
2016-11-25T17:13:11.072Z,28.48
2016-11-25T17:13:38.884Z,28.45
2016-11-25T17:14:06.937Z,28.41
2016-11-25T17:14:34.722Z,28.38
2016-11-25T17:15:02.565Z,28.33
2016-11-25T17:15:30.387Z,28.35
2016-11-25T17:15:58.196Z,28.3
2016-11-25T17:16:26.037Z,28.29
2016-11-25T17:16:54.081Z,28.32
2016-11-25T17:17:22.035Z,28.27
2016-11-25T17:17:49.959Z,28.3
2016-11-25T17:18:18.028Z,28.37
2016-11-25T17:18:45.863Z,28.35
2016-11-25T17:19:13.721Z,28.27
2016-11-25T17:19:41.688Z,28.2
2016-11-25T17:20:09.512Z,28.32
2016-11-25T17:20:37.366Z,28.2
2016-11-25T17:21:05.573Z,28.23
2016-11-25T17:21:33.315Z,28.17
2016-11-25T17:22:01.196Z,28.19
2016-11-25T17:22:29.021Z,28.14
2016-11-25T17:22:56.916Z,28.11
2016-11-25T17:23:25.018Z,28.08
2016-11-25T17:23:52.827Z,28.01
2016-11-25T17:24:20.780Z,27.95
2016-11-25T17:24:48.711Z,27.98
2016-11-25T17:25:16.510Z,27.95
2016-11-25T17:25:44.306Z,27.95
2016-11-25T17:26:12.277Z,27.93
2016-11-25T17:26:40.090Z,27.96
2016-11-25T17:27:08.093Z,27.98
2016-11-25T17:27:35.944Z,27.96
2016-11-25T17:28:03.708Z,27.98
2016-11-25T17:28:31.701Z,28
2016-11-25T17:28:59.669Z,28
2016-11-25T17:29:27.555Z,27.98
2016-11-25T17:29:55.381Z,27.93
2016-11-25T17:30:23.276Z,28.07
2016-11-25T17:30:51.227Z,28.02
2016-11-25T17:31:19.073Z,28.04
2016-11-25T17:31:46.906Z,28.1
2016-11-25T17:32:14.854Z,28.08
2016-11-25T17:32:42.741Z,28
2016-11-25T17:33:11.018Z,28.14
2016-11-25T17:33:39.338Z,28.15
2016-11-25T17:34:07.093Z,28.07
2016-11-25T17:34:35.013Z,28.2
2016-11-25T17:35:02.840Z,28.22
2016-11-25T17:35:31.000Z,28.22
2016-11-25T17:35:58.791Z,28.12
2016-11-25T17:36:26.686Z,28.04
2016-11-25T17:36:54.492Z,28.11
2016-11-25T17:37:22.269Z,28.02
2016-11-25T17:37:50.179Z,28
2016-11-25T17:38:18.158Z,28
2016-11-25T17:38:46.045Z,28.02
2016-11-25T17:39:14.426Z,28.05
2016-11-25T17:39:42.293Z,28
2016-11-25T17:40:10.186Z,28.01
2016-11-25T17:40:37.976Z,28.01
2016-11-25T17:41:05.894Z,27.98
2016-11-25T17:41:33.846Z,27.98
2016-11-25T17:42:01.603Z,28
2016-11-25T17:42:29.492Z,28.01
2016-11-25T17:42:57.292Z,28.04
2016-11-25T17:43:25.298Z,27.92
2016-11-25T17:43:53.097Z,27.9
2016-11-25T17:44:20.929Z,27.87
2016-11-25T17:44:48.759Z,27.78
2016-11-25T17:45:16.546Z,27.74
2016-11-25T17:45:44.413Z,27.78
2016-11-25T17:46:12.292Z,27.74
2016-11-25T17:46:40.109Z,27.74
2016-11-25T17:47:07.909Z,27.74
2016-11-25T17:47:35.880Z,27.75
2016-11-25T17:48:03.676Z,27.82
2016-11-25T17:48:31.720Z,27.86
2016-11-25T17:48:59.671Z,27.82
2016-11-25T17:49:27.513Z,27.7
2016-11-25T17:49:55.468Z,27.59
2016-11-25T17:50:23.346Z,27.59
2016-11-25T17:50:51.428Z,27.58
2016-11-25T17:51:19.278Z,27.54
2016-11-25T17:51:47.308Z,27.47
2016-11-25T17:52:15.179Z,27.51
2016-11-25T17:52:43.184Z,27.49
2016-11-25T17:53:11.146Z,27.32
2016-11-25T17:53:39.208Z,27.22
2016-11-25T17:54:07.002Z,27.22
2016-11-25T17:54:34.840Z,27.18
2016-11-25T17:55:03.000Z,27.02
2016-11-25T17:55:30.947Z,27.05
2016-11-25T17:55:59.083Z,26.97
2016-11-25T17:56:27.399Z,26.96
2016-11-25T17:56:55.271Z,26.95
2016-11-25T17:57:23.180Z,26.9
2016-11-25T17:57:51.210Z,26.93
2016-11-25T17:58:19.259Z,26.81
2016-11-25T17:58:47.211Z,26.92
2016-11-25T17:59:14.992Z,26.95
2016-11-25T17:59:42.891Z,26.96
2016-11-25T18:00:10.685Z,26.89
2016-11-25T18:00:38.550Z,26.99
2016-11-25T18:01:06.536Z,26.97
2016-11-25T18:01:34.492Z,26.9
2016-11-25T18:02:02.452Z,26.92
2016-11-25T18:02:30.192Z,26.95
2016-11-25T18:02:58.150Z,26.73
2016-11-25T18:03:26.152Z,26.7
2016-11-25T18:03:53.944Z,26.65
2016-11-25T18:04:21.957Z,26.58
2016-11-25T18:04:49.845Z,26.47
2016-11-25T18:05:17.954Z,26.43
2016-11-25T18:05:45.775Z,26.38
2016-11-25T18:06:13.588Z,26.38
2016-11-25T18:06:41.431Z,26.31
2016-11-25T18:07:09.364Z,26.26
2016-11-25T18:07:37.232Z,26.19
2016-11-25T18:08:05.100Z,26.19
2016-11-25T18:08:33.088Z,26.25
2016-11-25T18:09:00.985Z,26.36
2016-11-25T18:09:28.773Z,26.28
2016-11-25T18:09:56.658Z,26.41
2016-11-25T18:10:24.565Z,26.4
2016-11-25T18:10:52.497Z,26.38
2016-11-25T18:11:20.270Z,26.43
2016-11-25T18:11:48.162Z,26.45
2016-11-25T18:12:15.970Z,26.6
2016-11-25T18:12:43.782Z,26.65
2016-11-25T18:13:11.587Z,26.66
2016-11-25T18:13:39.472Z,26.7
2016-11-25T18:14:07.323Z,26.71
2016-11-25T18:14:35.278Z,26.66
2016-11-25T18:15:03.083Z,26.71
2016-11-25T18:15:30.976Z,26.71
2016-11-25T18:15:58.852Z,26.66
2016-11-25T18:16:26.850Z,26.68
2016-11-25T18:16:54.661Z,26.8
2016-11-25T18:17:22.425Z,26.68
2016-11-25T18:17:50.241Z,26.62
2016-11-25T18:18:18.155Z,26.51
2016-11-25T18:18:46.051Z,26.47
2016-11-25T18:19:13.848Z,26.41
2016-11-25T18:19:41.678Z,26.52
2016-11-25T18:20:09.633Z,26.56
2016-11-25T18:20:37.590Z,26.62
2016-11-25T18:21:05.691Z,26.74
2016-11-25T18:21:33.584Z,26.59
2016-11-25T18:22:01.475Z,26.65
2016-11-25T18:22:29.390Z,26.8
2016-11-25T18:22:57.335Z,26.51
2016-11-25T18:23:25.368Z,26.43
2016-11-25T18:23:53.204Z,26.45
2016-11-25T18:24:20.967Z,26.28
2016-11-25T18:24:49.184Z,26.41
2016-11-25T18:25:16.961Z,26.43
2016-11-25T18:25:44.716Z,26.43
2016-11-25T18:26:12.649Z,26.53
2016-11-25T18:26:40.539Z,26.45
2016-11-25T18:27:08.313Z,26.55
2016-11-25T18:27:36.383Z,26.53
2016-11-25T18:28:04.229Z,26.6
2016-11-25T18:28:32.367Z,26.53
2016-11-25T18:29:00.220Z,26.52
2016-11-25T18:29:28.261Z,26.34
2016-11-25T18:29:56.021Z,26.26
2016-11-25T18:30:23.872Z,26.16
2016-11-25T18:30:51.712Z,25.88
2016-11-25T18:31:19.609Z,25.77
2016-11-25T18:31:47.432Z,25.85
2016-11-25T18:32:15.278Z,25.88
2016-11-25T18:32:43.258Z,25.91
2016-11-25T18:33:11.127Z,26.06
2016-11-25T18:33:38.989Z,26.02
2016-11-25T18:34:07.405Z,26.15
2016-11-25T18:34:35.215Z,26.21
2016-11-25T18:35:03.069Z,26.18
2016-11-25T18:35:30.899Z,26.29
2016-11-25T18:35:58.775Z,26.31
2016-11-25T18:36:26.557Z,26.25
2016-11-25T18:36:54.397Z,26.19
2016-11-25T18:37:22.367Z,26.31
2016-11-25T18:37:50.240Z,26.13
2016-11-25T18:38:18.082Z,26.03
2016-11-25T18:38:46.259Z,26.15
2016-11-25T18:39:14.035Z,26.13
2016-11-25T18:39:41.817Z,26.22
2016-11-25T18:40:09.655Z,26.15
2016-11-25T18:40:37.696Z,26.13
2016-11-25T18:41:05.479Z,26.16
2016-11-25T18:41:33.350Z,26.16
2016-11-25T18:42:01.301Z,26.06
2016-11-25T18:42:29.106Z,26.06
2016-11-25T18:42:56.924Z,26
2016-11-25T18:43:24.721Z,25.95
2016-11-25T18:43:52.567Z,25.78
2016-11-25T18:44:20.532Z,25.77
2016-11-25T18:44:48.435Z,25.73
2016-11-25T18:45:16.355Z,25.69
2016-11-25T18:45:44.249Z,25.59
2016-11-25T18:46:12.011Z,25.58
2016-11-25T18:46:39.874Z,25.46
2016-11-25T18:47:08.080Z,25.5
2016-11-25T18:47:35.840Z,25.51
2016-11-25T18:48:03.758Z,25.53
2016-11-25T18:48:31.783Z,25.5
2016-11-25T18:48:59.636Z,25.47
2016-11-25T18:49:27.550Z,25.4
2016-11-25T18:49:55.421Z,25.51
2016-11-25T18:50:23.245Z,25.53
2016-11-25T18:50:51.106Z,25.62
2016-11-25T18:51:18.853Z,25.4
2016-11-25T18:51:46.658Z,25.5
2016-11-25T18:52:14.628Z,25.54
2016-11-25T18:52:42.404Z,25.53
2016-11-25T18:53:10.175Z,25.5
2016-11-25T18:53:38.024Z,25.32
2016-11-25T18:54:05.840Z,25.36
2016-11-25T18:54:33.818Z,25.33
2016-11-25T18:55:01.814Z,25.36
2016-11-25T18:55:29.678Z,25.13
2016-11-25T18:55:57.454Z,24.84
2016-11-25T18:56:25.237Z,24.85
2016-11-25T18:56:53.017Z,24.84
2016-11-25T18:57:21.027Z,24.8
2016-11-25T18:57:48.987Z,24.74
2016-11-25T18:58:16.733Z,24.86
2016-11-25T18:58:44.596Z,24.93
2016-11-25T18:59:12.435Z,25.03
2016-11-25T18:59:40.243Z,25.11
2016-11-25T19:00:08.307Z,25.04
2016-11-25T19:00:36.080Z,25.14
2016-11-25T19:01:04.012Z,25.13
2016-11-25T19:01:31.921Z,25.17
2016-11-25T19:01:59.810Z,25.32
2016-11-25T19:02:27.777Z,25.32
2016-11-25T19:02:55.579Z,25.32
2016-11-25T19:03:23.354Z,25.38
2016-11-25T19:03:51.384Z,25.31
2016-11-25T19:04:19.205Z,25.22
2016-11-25T19:04:47.007Z,25.13
2016-11-25T19:05:14.917Z,25.16
2016-11-25T19:05:42.753Z,25.18
2016-11-25T19:06:10.643Z,25.17
2016-11-25T19:06:38.439Z,25.31
2016-11-25T19:07:06.487Z,25.23
2016-11-25T19:07:34.308Z,25.29
2016-11-25T19:08:02.078Z,25.32
2016-11-25T19:08:29.973Z,25.28
2016-11-25T19:08:58.285Z,25.18
2016-11-25T19:09:26.155Z,25.17
2016-11-25T19:09:54.169Z,25.22
2016-11-25T19:10:22.261Z,25.31
2016-11-25T19:10:50.300Z,25.22
2016-11-25T19:11:18.217Z,25.23
2016-11-25T19:11:46.065Z,25.14
2016-11-25T19:12:13.961Z,25.08
2016-11-25T19:12:42.958Z,24.91
2016-11-25T19:13:10.738Z,24.73
2016-11-25T19:13:38.731Z,24.63
2016-11-25T19:14:06.596Z,24.61
2016-11-25T19:14:34.549Z,24.42
2016-11-25T19:15:03.069Z,24.32
2016-11-25T19:15:31.105Z,24.24
2016-11-25T19:15:58.894Z,24.17
2016-11-25T19:16:26.783Z,24.33
2016-11-25T19:16:54.684Z,24.4
2016-11-25T19:17:22.633Z,24.35
2016-11-25T19:17:50.695Z,24.38
2016-11-25T19:18:18.583Z,24.17
2016-11-25T19:18:46.555Z,24.13
2016-11-25T19:19:14.381Z,24.17
2016-11-25T19:19:42.705Z,24.23
2016-11-25T19:20:10.729Z,24.17
2016-11-25T19:20:38.574Z,24.16
2016-11-25T19:21:07.224Z,24.23
2016-11-25T19:21:35.113Z,24.13
2016-11-25T19:22:03.000Z,24.06
2016-11-25T19:22:30.786Z,24.03
2016-11-25T19:22:58.658Z,24.02
2016-11-25T19:23:26.570Z,24.06
2016-11-25T19:23:54.513Z,24.01
2016-11-25T19:24:22.455Z,23.91
2016-11-25T19:24:50.469Z,23.98
2016-11-25T19:25:18.420Z,24.01
2016-11-25T19:25:46.931Z,23.91
2016-11-25T19:26:14.755Z,23.71
2016-11-25T19:26:43.339Z,23.81
2016-11-25T19:27:11.365Z,23.81
2016-11-25T19:27:39.404Z,23.83
2016-11-25T19:28:07.390Z,23.88
2016-11-25T19:28:35.460Z,23.92
2016-11-25T19:29:03.603Z,23.92
2016-11-25T19:29:32.182Z,23.96
2016-11-25T19:30:00.547Z,23.91
2016-11-25T19:30:29.134Z,24.03
2016-11-25T19:30:57.615Z,24.03
2016-11-25T19:31:26.172Z,24.17
2016-11-25T19:31:54.213Z,24.18
2016-11-25T19:32:22.198Z,24.29
2016-11-25T19:32:50.168Z,24.2
2016-11-25T19:33:18.176Z,24.38
2016-11-25T19:33:47.055Z,24.32
2016-11-25T19:34:15.027Z,24.32
2016-11-25T19:34:43.835Z,24.47
2016-11-25T19:35:11.683Z,24.45
2016-11-25T19:35:39.666Z,24.5
2016-11-25T19:36:07.482Z,24.55
2016-11-25T19:36:35.269Z,24.54
2016-11-25T19:37:03.177Z,24.57
2016-11-25T19:37:31.014Z,24.57
2016-11-25T19:37:58.948Z,24.54
2016-11-25T19:38:26.811Z,24.61
2016-11-25T19:38:54.869Z,24.65
2016-11-25T19:39:22.746Z,24.61
2016-11-25T19:39:50.818Z,24.73
2016-11-25T19:40:19.190Z,24.76
2016-11-25T19:40:47.107Z,24.61
2016-11-25T19:41:15.800Z,24.69
2016-11-25T19:41:43.738Z,24.57
2016-11-25T19:42:11.767Z,24.43
2016-11-25T19:42:39.866Z,24.45
2016-11-25T19:43:07.989Z,24.39
2016-11-25T19:43:35.925Z,24.38
2016-11-25T19:44:03.876Z,24.35
2016-11-25T19:44:31.909Z,24.24
2016-11-25T19:44:59.971Z,24.17
2016-11-25T19:45:27.806Z,24.13
2016-11-25T19:45:56.263Z,24.11
2016-11-25T19:46:24.096Z,24.13
2016-11-25T19:46:52.469Z,24.06
2016-11-25T19:47:20.586Z,24.23
2016-11-25T19:47:48.408Z,24.17
2016-11-25T19:48:16.396Z,24.29
2016-11-25T19:48:44.967Z,24.29
2016-11-25T19:49:12.916Z,24.18
2016-11-25T19:49:41.277Z,24.2
2016-11-25T19:50:09.299Z,24.2
2016-11-25T19:50:37.263Z,24.38
2016-11-25T19:51:05.056Z,24.39
2016-11-25T19:51:32.884Z,24.4
2016-11-25T19:52:00.810Z,24.47
2016-11-25T19:52:28.667Z,24.47
2016-11-25T19:52:56.530Z,24.42
2016-11-25T19:53:24.462Z,24.28
2016-11-25T19:53:52.312Z,24.16
2016-11-25T19:54:20.197Z,24.13
2016-11-25T19:54:48.033Z,23.91
2016-11-25T19:55:15.818Z,23.86
2016-11-25T19:55:43.772Z,23.77
2016-11-25T19:56:11.654Z,23.87
2016-11-25T19:56:39.652Z,23.86
2016-11-25T19:57:07.646Z,23.73
2016-11-25T19:57:35.466Z,23.76
2016-11-25T19:58:03.485Z,23.87
2016-11-25T19:58:31.388Z,23.83
2016-11-25T19:58:59.395Z,23.88
2016-11-25T19:59:27.280Z,23.96
2016-11-25T19:59:55.203Z,23.99
2016-11-25T20:00:23.059Z,24.02
2016-11-25T20:00:51.098Z,24.18
2016-11-25T20:01:19.006Z,24.21
2016-11-25T20:01:46.785Z,24.18
2016-11-25T20:02:14.536Z,24.3
2016-11-25T20:02:42.428Z,24.35
2016-11-25T20:03:10.284Z,24.33
2016-11-25T20:03:38.103Z,24.32
2016-11-25T20:04:06.091Z,24.33
2016-11-25T20:04:33.971Z,24.47
2016-11-25T20:05:01.793Z,24.39
2016-11-25T20:05:29.655Z,24.48
2016-11-25T20:05:57.427Z,24.45
2016-11-25T20:06:25.377Z,24.4
2016-11-25T20:06:53.369Z,24.43
2016-11-25T20:07:21.232Z,24.4
2016-11-25T20:07:49.052Z,24.42
2016-11-25T20:08:16.897Z,24.4
2016-11-25T20:08:44.874Z,24.43
2016-11-25T20:09:12.784Z,24.43
2016-11-25T20:09:40.750Z,24.39
2016-11-25T20:10:08.541Z,24.32
2016-11-25T20:10:36.425Z,24.28
2016-11-25T20:11:04.238Z,24.24
2016-11-25T20:11:32.049Z,24.17
2016-11-25T20:11:59.835Z,24.13
2016-11-25T20:12:27.667Z,24.1
2016-11-25T20:12:55.474Z,24.08
2016-11-25T20:13:23.302Z,24.16
2016-11-25T20:13:51.115Z,24.17